Sutton, ND

12:27 PM CDT die 22o July, anno 2014 (GMT -0500)
Devils Lake Municipal (KDVL) Elev 1453 ft | 48.11 °N, 98.91 °W | Change Station

Current weather conditions updated 12 minutes ago

Clear
Serena
72 °F
Feels Like 72 °F
N
5
Ventus Variabilis Ventus from Magis Aquilo quam Zephyrus

Today is forecast to be Cooler than yesterday.

Hodie
High -- | Low -- °F
--% Chance of Precip.
Yesterday
High -- | Low -- °F
Precip. -- in
6:00 AM 9:19 PM
Waning Crescent, 16% visible
Pressio 30.17 in
Visibilitas 10.0 milia passuum
Clouds Serena
Frigus in quo Ros apparet 55 °F
Umor 57%
Rainfall 0.00 in
Snow Depth Not available.
UV 9 out of 12
Pollen 4.00 out of 12
Air Quality Not available.
Flu Activity Sporadic
METAR KDVL 221715Z AUTO 34004KT 10SM CLR 22/13 A3017 RMK AO1

More Conditions Fewer Conditions

Pressio 30.17 in
Visibilitas 10.0 milia passuum
Clouds Serena
Frigus in quo Ros apparet 55 °F
Umor 57%
Rainfall 0.00 in
Snow Depth Not available.
UV 9 out of 12
Pollen 4.00 out of 12
Air Quality Not available.
Flu Activity Sporadic
METAR KDVL 221715Z AUTO 34004KT 10SM CLR 22/13 A3017 RMK AO1

More Conditions Fewer Conditions

10-Day Weather Forecast

LIGHTNING

Thunderstorms are forecast for your area. Cloud conditions might be right for producing strikes in the next few days, though lightning itself cannot be forecasted.

Lightning is a visible electrical discharge produced by a thunderstorm, based on the build up of oppositely charged particles within a cloud and from cloud to ground.

Know how to stay safe in a lightning storm.

Check out these Lightning WunderPhotos!

Almanac

Astronomy

Jul. 22, 2014 Rise Set
Actual Time 6:00 AM CDT 9:19 PM CDT
Civil Twilight 5:22 AM CDT 9:56 PM CDT
Nautical Twilight 4:33 AM CDT 10:45 PM CDT
Astronomical Twilight 3:30 AM CDT 11:48 PM CDT
Moon 2:37 AM CDT 5:56 PM CDT
Length Of Visible Light 16h 34m
Length of Day
15h 19m
Tomorrow will be 2m 15s shorter.
Waning Crescent, 16% of the Moon is Illuminated
Hodie
Waning Crescent
Jul 26
New
Aug 3
First Quarter
Aug 10
Full
Aug 17
Last Quarter

Today's Extremes

State Highs State Lows

Community

WunderPhotos

Upload Photos

1,736,295 photos uploaded!

Nearby

Snow Depth

Station Depth Elevation
No new snow has been reported.

Earthquake Activity

City Distance Mag. Time & Date
No recent earthquake activity has been reported nearby.
Minimum magnitude displayed is 2.5.

Coastal Water Temperatures

Locus Calor
No Stations Reporting

Nearby Weather Stations

Station Location Temp Index Caloris Frigus in quo Ros apparet Umor Ventus Precip. Elev Renovata Type
Thurlow Farms, Carrington, ND 72.6 °F 76 °F 61 °F 66% Eurus  -  1.0 mph 0.00 in / hr 1535 ft 12:22 PM CDT Normal

Show More Stations Show Fewer Stations